createdAt,value
2019-04-11T00:01:56.909Z,98233.13
2019-04-11T00:04:30.221Z,98231.57
2019-04-11T00:07:03.662Z,98226.33
2019-04-11T00:09:35.863Z,98232.52
2019-04-11T00:12:08.397Z,98242.73
2019-04-11T00:14:42.085Z,98237.27
2019-04-11T00:17:14.331Z,98248.02
2019-04-11T00:19:47.412Z,98241.95
2019-04-11T00:22:19.632Z,98239.80
2019-04-11T00:24:51.655Z,98231.44
2019-04-11T00:27:24.618Z,98233.13
2019-04-11T00:29:56.639Z,98235.45
2019-04-11T00:32:29.574Z,98235.03
2019-04-11T00:35:01.777Z,98228.14
2019-04-11T00:37:34.708Z,98227.72
2019-04-11T00:40:08.895Z,98230.83
2019-04-11T00:42:41.252Z,98230.70
2019-04-11T00:45:14.044Z,98229.67
2019-04-11T00:47:46.956Z,98227.40
2019-04-11T00:50:19.159Z,98236.61
2019-04-11T00:52:51.675Z,98235.17
2019-04-11T00:55:25.019Z,98248.69
2019-04-11T00:57:57.126Z,98256.25
2019-04-11T01:00:29.251Z,98257.20
2019-04-11T01:03:02.023Z,98261.14
2019-04-11T01:05:35.151Z,98257.88
2019-04-11T01:08:07.345Z,98262.52
2019-04-11T01:10:39.789Z,98267.88
2019-04-11T01:13:11.966Z,98260.41
2019-04-11T01:15:49.685Z,98265.45
2019-04-11T01:18:22.242Z,98267.75
2019-04-11T01:20:55.993Z,98269.13
2019-04-11T01:23:28.956Z,98264.23
2019-04-11T01:26:01.309Z,98259.30
2019-04-11T01:28:34.387Z,98264.45
2019-04-11T01:31:09.475Z,98268.91
2019-04-11T01:33:42.173Z,98271.91
2019-04-11T01:36:15.090Z,98275.91
2019-04-11T01:38:51.336Z,98271.22
2019-04-11T01:41:24.564Z,98276.05
2019-04-11T01:44:02.158Z,98279.16
2019-04-11T01:46:30.618Z,98271.39
2019-04-11T01:49:23.942Z,98273.48
2019-04-11T01:51:56.095Z,98272.59
2019-04-11T01:54:28.236Z,98267.80
2019-04-11T01:57:01.334Z,98273.12
2019-04-11T01:59:35.476Z,98273.41
2019-04-11T02:02:30.427Z,98265.86
2019-04-11T02:05:27.527Z,98267.96
2019-04-11T02:08:00.874Z,98271.95
2019-04-11T02:10:33.491Z,98275.38
2019-04-11T02:13:05.825Z,98279.45
2019-04-11T02:15:41.312Z,98268.25
2019-04-11T02:18:13.377Z,98282.11
2019-04-11T02:20:45.563Z,98278.14
2019-04-11T02:23:27.081Z,98279.09
2019-04-11T02:26:27.302Z,98287.80
2019-04-11T02:29:01.287Z,98284.28
2019-04-11T02:31:34.925Z,98286.66
2019-04-11T02:34:08.670Z,98281.73
2019-04-11T02:36:42.527Z,98285.63
2019-04-11T02:39:19.180Z,98281.70
2019-04-11T02:41:50.596Z,98282.58
2019-04-11T02:44:45.756Z,98295.94
2019-04-11T02:47:05.582Z,98293.01
2019-04-11T02:49:33.058Z,98299.14
2019-04-11T02:52:06.925Z,98302.73
2019-04-11T02:54:40.817Z,98300.64
2019-04-11T02:57:14.099Z,98300.91
2019-04-11T02:59:48.789Z,98303.50
2019-04-11T03:02:21.479Z,98297.64
2019-04-11T03:04:55.662Z,98307.78
2019-04-11T03:07:29.905Z,98312.05
2019-04-11T03:10:03.142Z,98297.13
2019-04-11T03:12:38.138Z,98309.39
2019-04-11T03:15:28.919Z,98308.16
2019-04-11T03:17:46.168Z,98307.39
2019-04-11T03:20:26.383Z,98314.38
2019-04-11T03:22:57.449Z,98313.52
2019-04-11T03:25:25.953Z,98316.95
2019-04-11T03:27:58.977Z,98323.52
2019-04-11T03:30:46.657Z,98311.79
2019-04-11T03:38:36.811Z,98324.45
2019-04-11T03:41:08.765Z,98329.80
2019-04-11T03:43:33.693Z,98318.47
2019-04-11T03:46:16.367Z,98318.47
2019-04-11T03:48:45.004Z,98330.30
2019-04-11T03:51:05.100Z,98329.55
2019-04-11T03:53:37.406Z,98330.86
2019-04-11T03:56:12.011Z,98329.98
2019-04-11T03:58:46.042Z,98337.91
2019-04-11T04:01:18.919Z,98334.50
2019-04-11T04:03:53.939Z,98333.71
2019-04-11T04:06:26.139Z,98338.98
2019-04-11T04:08:58.522Z,98343.70
2019-04-11T04:11:32.601Z,98342.03
2019-04-11T04:14:26.220Z,98350.48
2019-04-11T04:17:27.769Z,98353.25
2019-04-11T04:20:11.501Z,98334.86
2019-04-11T04:23:00.932Z,98356.72
2019-04-11T04:25:34.729Z,98360.59
2019-04-11T04:28:07.498Z,98364.88
2019-04-11T04:30:42.716Z,98370.24
2019-04-11T04:33:14.552Z,98369.42
2019-04-11T04:35:47.498Z,98373.41
2019-04-11T04:38:21.076Z,98370.30
2019-04-11T04:41:12.853Z,98381.94
2019-04-11T04:43:34.022Z,98376.55
2019-04-11T04:46:23.726Z,98377.95
2019-04-11T04:48:43.332Z,98377.92
2019-04-11T04:51:16.299Z,98381.45
2019-04-11T04:53:50.103Z,98383.80
2019-04-11T04:56:26.439Z,98379.92
2019-04-11T04:58:58.234Z,98385.22
2019-04-11T05:01:31.588Z,98384.77
2019-04-11T05:04:04.778Z,98384.61
2019-04-11T05:06:38.776Z,98385.53
2019-04-11T05:09:12.634Z,98390.38
2019-04-11T05:11:46.516Z,98389.95
2019-04-11T05:14:18.981Z,98388.09
2019-04-11T05:16:52.559Z,98395.09
2019-04-11T05:19:25.517Z,98396.28
2019-04-11T05:21:59.797Z,98406.39
2019-04-11T05:24:32.034Z,98394.61
2019-04-11T05:27:04.195Z,98399.00
2019-04-11T05:29:36.275Z,98402.38
2019-04-11T05:32:09.284Z,98400.03
2019-04-11T05:34:41.498Z,98400.86
2019-04-11T05:37:16.893Z,98404.78
2019-04-11T05:39:48.854Z,98408.32
2019-04-11T05:42:24.973Z,98411.31
2019-04-11T05:44:54.810Z,98414.33
2019-04-11T05:47:27.638Z,98414.78
2019-04-11T05:50:11.590Z,98404.84
2019-04-11T05:52:42.102Z,98414.53
2019-04-11T05:55:15.509Z,98418.52
2019-04-11T05:57:50.140Z,98416.81
2019-04-11T06:00:41.168Z,98417.13
2019-04-11T06:03:13.449Z,98423.19
2019-04-11T06:06:03.305Z,98417.42
2019-04-11T06:08:37.847Z,98423.16
2019-04-11T06:11:41.230Z,98423.09
2019-04-11T06:14:33.105Z,98417.14
2019-04-11T06:17:09.189Z,98431.27
2019-04-11T06:20:18.260Z,98435.22
2019-04-11T06:23:19.170Z,98434.46
2019-04-11T06:26:22.995Z,98435.58
2019-04-11T06:29:01.262Z,98426.20
2019-04-11T06:31:51.588Z,98433.61
2019-04-11T06:34:26.506Z,98430.80
2019-04-11T06:37:17.230Z,98429.73
2019-04-11T06:39:57.739Z,98430.53
2019-04-11T06:42:47.643Z,98429.65
2019-04-11T06:45:37.787Z,98440.92
2019-04-11T06:48:30.406Z,98436.50
2019-04-11T06:51:15.720Z,98435.09
2019-04-11T06:53:54.665Z,98435.37
2019-04-11T06:56:37.968Z,98442.25
2019-04-11T06:59:14.450Z,98448.53
2019-04-11T07:01:47.602Z,98439.91
2019-04-11T07:04:32.071Z,98445.79
2019-04-11T07:07:08.513Z,98447.82
2019-04-11T07:09:50.132Z,98440.02
2019-04-11T07:12:26.638Z,98440.73
2019-04-11T07:15:18.885Z,98444.44
2019-04-11T07:18:09.866Z,98453.22
2019-04-11T07:21:02.876Z,98447.23
2019-04-11T07:23:53.408Z,98454.64
2019-04-11T07:26:31.510Z,98456.27
2019-04-11T07:29:23.741Z,98466.63
2019-04-11T07:32:16.183Z,98471.87
2019-04-11T07:35:06.440Z,98474.99
2019-04-11T07:37:40.689Z,98466.69
2019-04-11T07:40:31.926Z,98475.97
2019-04-11T07:43:11.527Z,98479.13
2019-04-11T07:46:12.717Z,98473.19
2019-04-11T07:48:44.875Z,98480.77
2019-04-11T07:51:27.633Z,98482.76
2019-04-11T07:54:02.649Z,98480.55
2019-04-11T07:56:59.674Z,98487.97
2019-04-11T07:59:53.674Z,98490.59
2019-04-11T08:02:43.493Z,98494.06
2019-04-11T08:05:38.760Z,98501.94
2019-04-11T08:08:30.238Z,98492.43
2019-04-11T08:11:15.847Z,98496.36
2019-04-11T08:14:06.367Z,98499.81
2019-04-11T08:16:57.387Z,98494.00
2019-04-11T08:20:04.999Z,98498.59
2019-04-11T08:22:39.378Z,98509.64
2019-04-11T08:25:24.945Z,98516.92
2019-04-11T08:28:04.372Z,98516.27
2019-04-11T08:30:41.680Z,98512.95
2019-04-11T08:33:14.180Z,98518.70
2019-04-11T08:36:13.726Z,98516.84
2019-04-11T08:38:46.714Z,98520.10
2019-04-11T08:41:42.535Z,98518.39
2019-04-11T08:44:21.324Z,98511.02
2019-04-11T08:46:58.135Z,98508.41
2019-04-11T08:49:37.592Z,98511.45
2019-04-11T08:52:22.401Z,98511.50
2019-04-11T08:55:04.226Z,98505.02
2019-04-11T08:57:40.940Z,98509.40
2019-04-11T09:00:28.584Z,98513.63
2019-04-11T09:03:13.529Z,98510.50
2019-04-11T09:06:06.397Z,98514.02
2019-04-11T09:09:00.304Z,98509.96
2019-04-11T09:11:42.167Z,98505.74
2019-04-11T09:14:32.509Z,98495.58
2019-04-11T09:17:26.153Z,98501.77
2019-04-11T09:20:29.798Z,98505.14
2019-04-11T09:23:06.649Z,98502.03
2019-04-11T09:25:57.591Z,98501.43
2019-04-11T09:28:44.203Z,98503.20
2019-04-11T09:31:38.135Z,98503.91
2019-04-11T09:34:33.623Z,98503.88
2019-04-11T09:37:18.504Z,98503.84
2019-04-11T09:40:26.279Z,98506.00
2019-04-11T09:43:15.967Z,98503.61
2019-04-11T09:46:18.582Z,98500.75
2019-04-11T09:49:22.707Z,98503.73
2019-04-11T09:52:12.269Z,98508.72
2019-04-11T09:54:54.898Z,98511.53
2019-04-11T09:57:38.573Z,98505.78
2019-04-11T10:00:30.427Z,98507.05
2019-04-11T10:03:23.687Z,98511.31
2019-04-11T10:06:15.772Z,98510.71
2019-04-11T10:08:56.049Z,98513.38
2019-04-11T10:11:59.156Z,98517.77
2019-04-11T10:14:31.696Z,98513.67
2019-04-11T10:17:40.263Z,98520.06
2019-04-11T10:20:16.104Z,98519.92
2019-04-11T10:23:08.148Z,98512.98
2019-04-11T10:25:48.139Z,98512.72
2019-04-11T10:28:37.937Z,98510.59
2019-04-11T10:31:15.034Z,98513.11
2019-04-11T10:34:09.156Z,98508.22
2019-04-11T10:36:49.468Z,98511.30
2019-04-11T10:40:00.137Z,98516.05
2019-04-11T10:42:34.645Z,98523.66
2019-04-11T10:45:31.148Z,98513.97
2019-04-11T10:48:05.523Z,98513.23
2019-04-11T10:51:06.612Z,98515.70
2019-04-11T10:53:39.464Z,98516.33
2019-04-11T10:56:34.659Z,98524.23
2019-04-11T10:59:07.168Z,98524.47
2019-04-11T11:02:01.693Z,98528.86
2019-04-11T11:04:36.799Z,98527.76
2019-04-11T11:07:12.963Z,98524.95
2019-04-11T11:10:07.318Z,98521.34
2019-04-11T11:13:08.226Z,98519.82
2019-04-11T11:15:50.243Z,98520.83
2019-04-11T11:19:15.005Z,98520.02
2019-04-11T11:21:19.772Z,98525.31
2019-04-11T11:24:10.738Z,98529.44
2019-04-11T11:26:43.254Z,98530.78
2019-04-11T11:29:37.289Z,98525.31
2019-04-11T11:32:20.967Z,98525.42
2019-04-11T11:35:12.818Z,98523.75
2019-04-11T11:37:50.803Z,98525.31
2019-04-11T11:40:44.842Z,98545.67
2019-04-11T11:43:19.525Z,98534.84
2019-04-11T11:46:29.076Z,98529.28
2019-04-11T11:49:37.648Z,98523.52
2019-04-11T11:52:13.115Z,98530.77
2019-04-11T11:54:53.668Z,98532.74
2019-04-11T11:57:37.623Z,98528.50
2019-04-11T12:00:16.985Z,98531.16
2019-04-11T12:03:05.213Z,98521.87
2019-04-11T12:05:48.174Z,98527.63
2019-04-11T12:08:39.201Z,98525.95
2019-04-11T12:11:13.609Z,98532.67
2019-04-11T12:14:04.592Z,98517.47
2019-04-11T12:17:14.332Z,98528.88
2019-04-11T12:20:16.456Z,98529.42
2019-04-11T12:22:50.412Z,98526.98
2019-04-11T12:25:34.777Z,98529.68
2019-04-11T12:28:25.775Z,98533.94
2019-04-11T12:31:03.913Z,98532.83
2019-04-11T12:33:54.011Z,98535.92
2019-04-11T12:36:32.605Z,98539.48
2019-04-11T12:39:38.653Z,98538.13
2019-04-11T12:42:16.552Z,98534.78
2019-04-11T12:45:06.684Z,98539.23
2019-04-11T12:47:44.614Z,98533.41
2019-04-11T12:50:34.636Z,98532.59
2019-04-11T12:53:08.848Z,98538.89
2019-04-11T12:56:02.749Z,98534.98
2019-04-11T12:58:43.090Z,98530.11
2019-04-11T13:01:40.845Z,98528.70
2019-04-11T13:04:32.603Z,98535.55
2019-04-11T13:07:31.452Z,98539.81
2019-04-11T13:10:13.211Z,98537.13
2019-04-11T13:13:04.056Z,98535.24
2019-04-11T13:15:57.992Z,98524.38
2019-04-11T13:18:49.881Z,98531.94
2019-04-11T13:21:28.455Z,98536.99
2019-04-11T13:24:22.195Z,98534.52
2019-04-11T13:27:10.709Z,98532.12
2019-04-11T13:30:04.501Z,98539.13
2019-04-11T13:32:43.944Z,98542.29
2019-04-11T13:35:24.807Z,98547.08
2019-04-11T13:38:18.715Z,98540.88
2019-04-11T13:41:16.011Z,98541.42
2019-04-11T13:43:51.751Z,98554.28
2019-04-11T13:46:46.528Z,98543.29
2019-04-11T13:49:46.667Z,98551.25
2019-04-11T13:52:37.584Z,98549.99
2019-04-11T13:55:15.238Z,98556.31
2019-04-11T13:58:12.030Z,98547.34
2019-04-11T14:00:57.744Z,98545.75
2019-04-11T14:03:49.282Z,98541.72
2019-04-11T14:06:26.767Z,98539.49
2019-04-11T14:09:20.725Z,98536.50
2019-04-11T14:11:54.900Z,98541.93
2019-04-11T14:14:32.934Z,98534.53
2019-04-11T14:17:27.877Z,98540.75
2019-04-11T14:20:28.561Z,98543.87
2019-04-11T14:23:14.114Z,98544.07
2019-04-11T14:26:05.106Z,98538.59
2019-04-11T14:28:40.807Z,98539.41
2019-04-11T14:31:30.548Z,98545.91
2019-04-11T14:34:08.412Z,98544.96
2019-04-11T14:36:58.209Z,98541.33
2019-04-11T14:39:35.210Z,98537.60
2019-04-11T14:42:31.818Z,98537.73
2019-04-11T14:45:07.503Z,98537.82
2019-04-11T14:47:56.937Z,98532.05
2019-04-11T14:50:40.885Z,98530.58
2019-04-11T14:53:31.024Z,98534.56
2019-04-11T14:56:05.977Z,98539.22
2019-04-11T14:59:06.086Z,98536.33
2019-04-11T15:01:39.120Z,98532.68
2019-04-11T15:04:28.310Z,98530.09
2019-04-11T15:07:00.675Z,98529.63
2019-04-11T15:09:41.119Z,98534.10
2019-04-11T15:12:18.594Z,98528.54
2019-04-11T15:15:20.017Z,98525.48
2019-04-11T15:17:57.282Z,98531.35
2019-04-11T15:20:54.918Z,98528.54
2019-04-11T15:23:45.603Z,98526.21
2019-04-11T15:26:45.471Z,98528.23
2019-04-11T15:29:30.509Z,98527.77
2019-04-11T15:32:20.366Z,98525.55
2019-04-11T15:34:54.817Z,98532.05
2019-04-11T15:37:44.713Z,98530.16
2019-04-11T15:40:20.330Z,98527.23
2019-04-11T15:43:11.587Z,98528.16
2019-04-11T15:46:10.116Z,98527.28
2019-04-11T15:49:00.919Z,98530.45
2019-04-11T15:51:38.357Z,98534.28
2019-04-11T15:54:34.814Z,98536.36
2019-04-11T15:57:12.687Z,98537.63
2019-04-11T16:00:07.750Z,98539.50
2019-04-11T16:02:49.686Z,98537.77
2019-04-11T16:05:41.942Z,98533.23
2019-04-11T16:08:38.785Z,98535.70
2019-04-11T16:11:31.409Z,98540.14
2019-04-11T16:14:11.868Z,98534.28
2019-04-11T16:17:05.315Z,98543.63
2019-04-11T16:19:51.711Z,98537.56
2019-04-11T16:22:45.243Z,98539.00
2019-04-11T16:25:19.017Z,98539.95
2019-04-11T16:28:11.435Z,98542.90
2019-04-11T16:31:09.782Z,98536.78
2019-04-11T16:34:04.476Z,98542.58
2019-04-11T16:36:51.414Z,98545.52
2019-04-11T16:39:47.918Z,98550.64
2019-04-11T16:42:36.526Z,98551.43
2019-04-11T16:45:40.832Z,98552.81
2019-04-11T16:48:13.051Z,98551.50
2019-04-11T16:50:45.267Z,98553.87
2019-04-11T16:53:17.530Z,98552.64
2019-04-11T16:55:50.118Z,98553.33
2019-04-11T16:58:22.164Z,98553.06
2019-04-11T17:00:54.303Z,98556.27
2019-04-11T17:03:26.379Z,98554.12
2019-04-11T17:06:07.692Z,98555.23
2019-04-11T17:08:51.672Z,98553.80
2019-04-11T17:11:26.720Z,98556.92
2019-04-11T17:13:57.998Z,98554.66
2019-04-11T17:16:31.001Z,98560.86
2019-04-11T17:19:05.535Z,98555.06
2019-04-11T17:21:43.062Z,98561.48
2019-04-11T17:24:11.213Z,98560.66
2019-04-11T17:26:43.189Z,98561.55
2019-04-11T17:29:15.242Z,98569.56
2019-04-11T17:31:47.348Z,98572.18
2019-04-11T17:34:20.189Z,98567.83
2019-04-11T17:36:52.156Z,98572.98
2019-04-11T17:39:24.107Z,98574.56
2019-04-11T17:41:56.124Z,98571.77
2019-04-11T17:44:28.264Z,98577.83
2019-04-11T17:47:02.540Z,98573.45
2019-04-11T17:49:34.578Z,98582.31
2019-04-11T17:52:08.155Z,98586.25
2019-04-11T17:54:40.426Z,98599.06
2019-04-11T17:57:12.523Z,98589.84
2019-04-11T17:59:44.547Z,98601.17
2019-04-11T18:02:16.736Z,98603.79
2019-04-11T18:04:49.869Z,98616.03
2019-04-11T18:07:21.862Z,98609.38
2019-04-11T18:09:56.020Z,98620.19
2019-04-11T18:12:27.841Z,98623.78
2019-04-11T18:15:02.305Z,98622.83
2019-04-11T18:17:34.949Z,98630.31
2019-04-11T18:20:08.489Z,98628.51
2019-04-11T18:22:41.034Z,98635.53
2019-04-11T18:25:13.642Z,98636.56
2019-04-11T18:27:45.812Z,98641.98
2019-04-11T18:30:17.955Z,98640.08
2019-04-11T18:32:50.285Z,98642.34
2019-04-11T18:35:22.412Z,98648.45
2019-04-11T18:37:54.483Z,98649.67
2019-04-11T18:40:27.047Z,98646.83
2019-04-11T18:42:59.096Z,98649.20
2019-04-11T18:45:31.313Z,98650.94
2019-04-11T18:48:03.292Z,98664.58
2019-04-11T18:50:35.250Z,98651.47
2019-04-11T18:53:07.560Z,98656.97
2019-04-11T18:55:40.047Z,98657.53
2019-04-11T18:58:11.997Z,98651.42
2019-04-11T19:00:44.423Z,98659.27
2019-04-11T19:03:16.663Z,98656.78
2019-04-11T19:05:48.759Z,98655.98
2019-04-11T19:08:21.150Z,98661.48
2019-04-11T19:10:53.357Z,98660.73
2019-04-11T19:13:25.436Z,98655.92
2019-04-11T19:15:57.525Z,98667.11
2019-04-11T19:18:29.602Z,98667.29
2019-04-11T19:21:01.736Z,98658.09
2019-04-11T19:23:33.679Z,98662.70
2019-04-11T19:26:05.721Z,98666.45
2019-04-11T19:28:37.929Z,98666.29
2019-04-11T19:31:12.324Z,98670.70
2019-04-11T19:33:44.176Z,98665.35
2019-04-11T19:36:16.220Z,98668.03
2019-04-11T19:38:48.292Z,98669.47
2019-04-11T19:41:20.935Z,98670.49
2019-04-11T19:43:53.307Z,98670.96
2019-04-11T19:46:25.488Z,98663.91
2019-04-11T19:48:59.500Z,98671.25
2019-04-11T19:51:31.277Z,98680.27
2019-04-11T19:54:03.889Z,98672.58
2019-04-11T19:56:47.215Z,98677.49
2019-04-11T19:59:19.214Z,98666.97
2019-04-11T20:01:53.177Z,98675.20
2019-04-11T20:04:25.190Z,98678.34
2019-04-11T20:06:57.388Z,98673.51
2019-04-11T20:09:29.427Z,98682.67
2019-04-11T20:12:01.777Z,98682.17
2019-04-11T20:14:34.937Z,98679.34
2019-04-11T20:17:09.189Z,98674.16
2019-04-11T20:19:41.088Z,98683.40
2019-04-11T20:22:13.171Z,98684.56
2019-04-11T20:24:46.865Z,98678.95
2019-04-11T20:27:20.258Z,98686.06
2019-04-11T20:29:55.246Z,98689.73
2019-04-11T20:32:26.880Z,98692.00
2019-04-11T20:34:58.982Z,98699.95
2019-04-11T20:37:39.055Z,98692.25
2019-04-11T20:40:05.477Z,98693.66
2019-04-11T20:42:37.751Z,98691.47
2019-04-11T20:45:10.657Z,98694.52
2019-04-11T20:47:42.752Z,98697.25
2019-04-11T20:50:18.237Z,98699.44
2019-04-11T20:52:50.920Z,98701.08
2019-04-11T20:55:23.013Z,98698.85
2019-04-11T20:57:55.093Z,98695.83
2019-04-11T21:00:27.405Z,98694.41
2019-04-11T21:02:59.993Z,98697.53
2019-04-11T21:05:33.993Z,98692.28
2019-04-11T21:08:06.138Z,98699.41
2019-04-11T21:10:38.223Z,98694.16
2019-04-11T21:13:10.495Z,98696.82
2019-04-11T21:15:43.468Z,98695.05
2019-04-11T21:18:15.796Z,98700.27
2019-04-11T21:20:47.837Z,98696.06
2019-04-11T21:23:24.698Z,98690.97
2019-04-11T21:25:53.577Z,98679.98
2019-04-11T21:28:27.863Z,98696.19
2019-04-11T21:31:00.740Z,98696.62
2019-04-11T21:33:34.955Z,98695.21
2019-04-11T21:36:07.000Z,98694.94
2019-04-11T21:38:39.457Z,98700.38
2019-04-11T21:41:12.833Z,98695.55
2019-04-11T21:43:44.831Z,98695.13
2019-04-11T21:46:18.767Z,98693.84
2019-04-11T21:48:52.706Z,98695.64
2019-04-11T21:51:24.766Z,98693.36
2019-04-11T21:53:56.804Z,98687.65
2019-04-11T21:56:29.044Z,98697.75
2019-04-11T21:59:01.282Z,98688.99
2019-04-11T22:01:34.011Z,98700.02
2019-04-11T22:04:06.199Z,98697.11
2019-04-11T22:06:38.303Z,98700.13
2019-04-11T22:09:11.034Z,98701.50
2019-04-11T22:11:42.983Z,98697.48
2019-04-11T22:14:14.973Z,98693.54
2019-04-11T22:16:46.884Z,98690.42
2019-04-11T22:19:18.933Z,98690.45
2019-04-11T22:21:51.310Z,98692.63
2019-04-11T22:24:23.273Z,98701.07
2019-04-11T22:26:55.300Z,98702.87
2019-04-11T22:29:28.737Z,98694.25
2019-04-11T22:32:00.720Z,98692.06
2019-04-11T22:34:44.930Z,98691.20
2019-04-11T22:37:16.973Z,98690.80
2019-04-11T22:39:48.901Z,98705.31
2019-04-11T22:42:21.343Z,98701.80
2019-04-11T22:44:53.302Z,98707.05
2019-04-11T22:47:25.456Z,98704.03
2019-04-11T22:49:57.402Z,98705.81
2019-04-11T22:52:29.509Z,98707.56
2019-04-11T22:55:01.596Z,98698.84
2019-04-11T22:57:33.635Z,98693.59
2019-04-11T23:00:09.208Z,98699.75
2019-04-11T23:03:00.009Z,98698.45
2019-04-11T23:05:32.196Z,98696.61
2019-04-11T23:08:04.167Z,98692.70
2019-04-11T23:10:36.628Z,98696.27
2019-04-11T23:13:08.593Z,98697.13
2019-04-11T23:15:43.373Z,98696.70
2019-04-11T23:18:16.090Z,98694.93
2019-04-11T23:20:48.034Z,98692.70
2019-04-11T23:23:20.439Z,98699.31
2019-04-11T23:25:52.604Z,98693.61
2019-04-11T23:28:24.550Z,98699.37
2019-04-11T23:30:56.626Z,98699.75
2019-04-11T23:33:28.680Z,98699.23
2019-04-11T23:36:01.106Z,98696.77
2019-04-11T23:38:33.286Z,98705.63
2019-04-11T23:41:05.320Z,98698.23
2019-04-11T23:43:37.262Z,98702.24
2019-04-11T23:46:09.240Z,98695.61
2019-04-11T23:48:41.218Z,98700.42
2019-04-11T23:51:13.170Z,98696.06
2019-04-11T23:53:47.004Z,98694.75
2019-04-11T23:56:19.010Z,98701.78
2019-04-11T23:58:51.389Z,98700.45
